createdAt,value
2018-07-13T00:01:42.583Z,2.67
2018-07-13T00:03:44.946Z,2.70
2018-07-13T00:05:47.291Z,2.90
2018-07-13T00:07:49.890Z,2.60
2018-07-13T00:09:52.305Z,2.10
2018-07-13T00:11:54.787Z,2.20
2018-07-13T00:14:02.555Z,2.50
2018-07-13T00:16:05.116Z,2.53
2018-07-13T00:18:07.311Z,2.47
2018-07-13T00:20:09.883Z,2.40
2018-07-13T00:22:12.216Z,2.30
2018-07-13T00:24:14.526Z,2.60
2018-07-13T00:26:16.800Z,2.70
2018-07-13T00:28:19.036Z,2.10
2018-07-13T00:30:21.332Z,2.47
2018-07-13T00:32:23.557Z,2.40
2018-07-13T00:34:25.816Z,2.30
2018-07-13T00:36:28.442Z,2.23
2018-07-13T00:38:30.817Z,2.27
2018-07-13T00:40:33.157Z,2.27
2018-07-13T00:42:35.530Z,2.60
2018-07-13T00:44:38.368Z,2.13
2018-07-13T00:46:40.702Z,2.37
2018-07-13T00:48:43.539Z,2.20
2018-07-13T00:50:45.840Z,2.60
2018-07-13T00:52:48.235Z,2.30
2018-07-13T00:54:50.500Z,2.40
2018-07-13T00:56:53.312Z,2.00
2018-07-13T00:58:55.580Z,2.30
2018-07-13T01:00:57.817Z,2.30
2018-07-13T01:03:01.191Z,2.20
2018-07-13T01:05:03.479Z,2.23
2018-07-13T01:07:06.016Z,2.13
2018-07-13T01:09:08.243Z,2.07
2018-07-13T01:11:10.531Z,1.93
2018-07-13T01:13:12.934Z,2.57
2018-07-13T01:15:15.316Z,2.30
2018-07-13T01:17:18.715Z,2.53
2018-07-13T01:19:21.647Z,2.40
2018-07-13T01:21:23.994Z,2.10
2018-07-13T01:23:27.455Z,2.20
2018-07-13T01:25:29.749Z,2.33
2018-07-13T01:27:32.065Z,2.60
2018-07-13T01:29:34.391Z,2.00
2018-07-13T01:31:36.706Z,2.13
2018-07-13T01:33:38.956Z,2.10
2018-07-13T01:35:41.305Z,2.30
2018-07-13T01:37:43.594Z,2.17
2018-07-13T01:39:45.970Z,2.33
2018-07-13T01:41:48.694Z,2.40
2018-07-13T01:43:51.021Z,2.03
2018-07-13T01:45:53.283Z,1.97
2018-07-13T01:47:55.524Z,2.30
2018-07-13T01:49:57.842Z,2.27
2018-07-13T01:52:00.819Z,2.20
2018-07-13T01:54:03.121Z,2.10
2018-07-13T01:56:05.462Z,2.20
2018-07-13T01:58:07.843Z,2.00
2018-07-13T02:00:10.331Z,2.30
2018-07-13T02:02:12.559Z,2.10
2018-07-13T02:04:15.441Z,2.20
2018-07-13T02:06:17.702Z,2.37
2018-07-13T02:08:20.677Z,2.40
2018-07-13T02:10:23.170Z,1.53
2018-07-13T02:12:25.453Z,1.90
2018-07-13T02:14:27.847Z,2.03
2018-07-13T02:16:30.130Z,2.30
2018-07-13T02:18:32.549Z,2.00
2018-07-13T02:20:34.831Z,2.00
2018-07-13T02:22:37.082Z,2.10
2018-07-13T02:24:39.341Z,2.30
2018-07-13T02:26:41.679Z,2.13
2018-07-13T02:28:43.989Z,2.70
2018-07-13T02:30:46.350Z,2.07
2018-07-13T02:32:48.651Z,2.23
2018-07-13T02:34:50.998Z,2.20
2018-07-13T02:36:54.247Z,2.10
2018-07-13T02:38:56.543Z,1.90
2018-07-13T02:40:58.859Z,2.23
2018-07-13T02:43:01.099Z,2.07
2018-07-13T02:45:03.433Z,2.10
2018-07-13T02:47:05.802Z,1.83
2018-07-13T02:49:08.083Z,2.10
2018-07-13T02:51:10.417Z,2.00
2018-07-13T02:53:13.183Z,2.00
2018-07-13T02:55:15.507Z,2.23
2018-07-13T02:57:17.986Z,2.10
2018-07-13T02:59:20.245Z,2.00
2018-07-13T03:01:22.496Z,2.10
2018-07-13T03:03:24.787Z,2.30
2018-07-13T03:05:27.149Z,2.10
2018-07-13T03:07:29.949Z,2.03
2018-07-13T03:09:32.392Z,2.10
2018-07-13T03:11:35.264Z,1.97
2018-07-13T03:13:37.528Z,2.10
2018-07-13T03:15:39.824Z,2.00
2018-07-13T03:17:43.129Z,1.87
2018-07-13T03:19:45.592Z,2.10
2018-07-13T03:21:47.846Z,2.10
2018-07-13T03:23:50.140Z,2.00
2018-07-13T03:25:52.414Z,2.10
2018-07-13T03:27:54.672Z,2.00
2018-07-13T03:29:56.952Z,1.80
2018-07-13T03:31:59.355Z,1.97
2018-07-13T03:34:01.707Z,2.30
2018-07-13T03:36:03.991Z,2.40
2018-07-13T03:38:06.278Z,1.87
2018-07-13T03:40:08.681Z,2.07
2018-07-13T03:42:10.959Z,2.17
2018-07-13T03:44:13.290Z,2.10
2018-07-13T03:46:15.558Z,2.47
2018-07-13T03:48:17.911Z,2.23
2018-07-13T03:50:20.131Z,1.90
2018-07-13T03:52:22.431Z,1.93
2018-07-13T03:54:24.693Z,1.90
2018-07-13T03:56:26.972Z,2.00
2018-07-13T03:58:29.365Z,1.80
2018-07-13T04:00:31.971Z,2.10
2018-07-13T04:02:34.266Z,2.00
2018-07-13T04:04:36.519Z,2.07
2018-07-13T04:06:38.806Z,2.00
2018-07-13T04:08:41.144Z,1.90
2018-07-13T04:10:43.434Z,2.07
2018-07-13T04:12:45.885Z,2.20
2018-07-13T04:14:48.226Z,2.00
2018-07-13T04:16:50.508Z,2.13
2018-07-13T04:18:52.859Z,2.00
2018-07-13T04:20:55.128Z,2.30
2018-07-13T04:22:57.421Z,2.00
2018-07-13T04:24:59.665Z,2.17
2018-07-13T04:27:02.285Z,2.00
2018-07-13T04:29:04.559Z,2.30
2018-07-13T04:31:06.867Z,1.83
2018-07-13T04:33:09.195Z,2.20
2018-07-13T04:35:11.567Z,2.00
2018-07-13T04:37:14.017Z,1.87
2018-07-13T04:39:16.406Z,1.97
2018-07-13T04:41:18.749Z,2.00
2018-07-13T04:43:21.038Z,2.43
2018-07-13T04:45:23.427Z,2.23
2018-07-13T04:47:25.740Z,1.90
2018-07-13T04:49:28.060Z,2.00
2018-07-13T04:51:30.452Z,1.93
2018-07-13T04:53:32.797Z,2.03
2018-07-13T04:55:35.829Z,1.90
2018-07-13T04:57:38.146Z,2.07
2018-07-13T04:59:40.400Z,2.07
2018-07-13T05:01:42.685Z,2.10
2018-07-13T05:03:44.943Z,2.00
2018-07-13T05:05:47.313Z,2.23
2018-07-13T05:07:50.604Z,2.20
2018-07-13T05:09:59.019Z,2.03
2018-07-13T05:12:01.940Z,1.90
2018-07-13T05:14:04.292Z,1.87
2018-07-13T05:16:06.782Z,2.17
2018-07-13T05:18:09.231Z,2.20
2018-07-13T05:20:11.603Z,2.00
2018-07-13T05:22:13.909Z,1.93
2018-07-13T05:24:16.244Z,2.27
2018-07-13T05:26:19.070Z,2.10
2018-07-13T05:28:21.966Z,2.37
2018-07-13T05:30:24.323Z,2.17
2018-07-13T05:32:26.637Z,1.90
2018-07-13T05:34:29.056Z,2.20
2018-07-13T05:36:31.609Z,2.13
2018-07-13T05:38:33.927Z,2.20
2018-07-13T05:40:36.421Z,2.17
2018-07-13T05:42:38.755Z,2.30
2018-07-13T05:44:41.119Z,1.83
2018-07-13T05:46:43.356Z,2.10
2018-07-13T05:48:45.641Z,2.20
2018-07-13T05:50:47.957Z,2.10
2018-07-13T05:52:50.392Z,2.40
2018-07-13T05:54:52.788Z,2.13
2018-07-13T05:56:55.379Z,2.10
2018-07-13T05:58:57.719Z,2.10
2018-07-13T06:00:59.968Z,2.10
2018-07-13T06:03:02.276Z,2.20
2018-07-13T06:05:04.587Z,2.10
2018-07-13T06:07:06.963Z,2.00
2018-07-13T06:09:11.676Z,2.20
2018-07-13T06:11:14.093Z,2.10
2018-07-13T06:13:16.355Z,2.20
2018-07-13T06:15:18.696Z,2.20
2018-07-13T06:17:20.964Z,1.97
2018-07-13T06:19:23.334Z,1.90
2018-07-13T06:21:25.728Z,2.10
2018-07-13T06:23:28.049Z,2.10
2018-07-13T06:25:30.353Z,2.20
2018-07-13T06:27:32.605Z,2.27
2018-07-13T06:29:35.084Z,2.17
2018-07-13T06:31:37.379Z,2.10
2018-07-13T06:33:40.171Z,2.20
2018-07-13T06:35:42.449Z,2.10
2018-07-13T06:37:45.040Z,2.40
2018-07-13T06:39:47.397Z,2.30
2018-07-13T06:41:49.786Z,2.20
2018-07-13T06:43:52.274Z,2.10
2018-07-13T06:45:54.634Z,2.30
2018-07-13T06:47:56.932Z,2.30
2018-07-13T06:49:59.277Z,2.10
2018-07-13T06:52:01.723Z,2.23
2018-07-13T06:54:04.021Z,2.13
2018-07-13T06:56:06.429Z,2.10
2018-07-13T06:58:14.614Z,2.00
2018-07-13T07:01:05.656Z,2.03
2018-07-13T07:03:07.952Z,2.00
2018-07-13T07:05:15.972Z,1.90
2018-07-13T07:07:19.364Z,2.00
2018-07-13T07:09:21.960Z,2.20
2018-07-13T07:11:24.642Z,2.27
2018-07-13T07:13:27.689Z,2.20
2018-07-13T07:15:30.034Z,2.23
2018-07-13T07:17:32.389Z,2.30
2018-07-13T07:19:34.739Z,2.30
2018-07-13T07:21:37.004Z,2.00
2018-07-13T07:23:39.210Z,2.13
2018-07-13T07:25:41.390Z,2.50
2018-07-13T07:27:44.368Z,2.20
2018-07-13T07:29:46.632Z,2.03
2018-07-13T07:31:49.483Z,2.20
2018-07-13T07:33:51.869Z,2.37
2018-07-13T07:35:54.165Z,1.77
2018-07-13T07:37:56.987Z,2.07
2018-07-13T07:39:59.611Z,2.10
2018-07-13T07:42:01.978Z,1.97
2018-07-13T07:44:04.190Z,2.20
2018-07-13T07:46:06.419Z,2.00
2018-07-13T07:48:08.710Z,1.80
2018-07-13T07:50:11.689Z,2.20
2018-07-13T07:52:14.253Z,2.10
2018-07-13T07:54:16.551Z,2.17
2018-07-13T07:56:18.892Z,2.13
2018-07-13T07:58:21.188Z,2.23
2018-07-13T08:00:23.510Z,2.03
2018-07-13T08:02:25.784Z,2.03
2018-07-13T08:04:28.688Z,2.10
2018-07-13T08:06:30.977Z,2.30
2018-07-13T08:08:33.228Z,2.13
2018-07-13T08:10:35.614Z,2.40
2018-07-13T08:12:38.022Z,2.40
2018-07-13T08:14:40.551Z,2.20
2018-07-13T08:16:42.788Z,2.10
2018-07-13T08:18:45.150Z,1.90
2018-07-13T08:20:48.748Z,2.00
2018-07-13T08:22:53.126Z,4.03
2018-07-13T08:24:55.995Z,4.63
2018-07-13T08:27:02.378Z,8.00
2018-07-13T08:29:04.686Z,9.37
2018-07-13T08:31:06.993Z,6.53
2018-07-13T08:33:09.452Z,3.17
2018-07-13T08:35:11.630Z,3.73
2018-07-13T08:37:13.914Z,2.70
2018-07-13T08:39:16.981Z,3.77
2018-07-13T08:41:19.289Z,4.87
2018-07-13T08:43:21.549Z,4.57
2018-07-13T08:45:24.158Z,5.43
2018-07-13T08:47:26.448Z,2.50
2018-07-13T08:49:28.697Z,4.87
2018-07-13T08:51:31.062Z,26.60
2018-07-13T08:53:33.252Z,24.67
2018-07-13T08:55:35.509Z,14.00
2018-07-13T08:57:38.271Z,16.17
2018-07-13T08:59:40.687Z,13.40
2018-07-13T09:01:43.505Z,10.07
2018-07-13T09:03:45.808Z,7.17
2018-07-13T09:05:48.248Z,6.03
2018-07-13T09:07:50.465Z,15.43
2018-07-13T09:09:52.761Z,16.03
2018-07-13T09:11:55.045Z,14.93
2018-07-13T09:13:57.498Z,10.20
2018-07-13T09:15:59.768Z,15.87
2018-07-13T09:18:02.032Z,12.53
2018-07-13T09:20:05.026Z,30.63
2018-07-13T09:22:07.292Z,22.13
2018-07-13T09:24:09.552Z,16.27
2018-07-13T09:26:12.518Z,13.13
2018-07-13T09:28:15.439Z,12.03
2018-07-13T09:30:17.692Z,13.33
2018-07-13T09:32:20.135Z,18.67
2018-07-13T09:34:23.031Z,9.73
2018-07-13T09:36:25.265Z,16.37
2018-07-13T09:38:27.653Z,17.87
2018-07-13T09:40:29.983Z,26.80
2018-07-13T09:42:32.266Z,42.33
2018-07-13T09:44:34.536Z,18.80
2018-07-13T09:46:36.969Z,12.77
2018-07-13T09:48:39.321Z,15.67
2018-07-13T09:50:41.642Z,10.37
2018-07-13T09:52:43.910Z,14.53
2018-07-13T09:54:46.192Z,12.20
2018-07-13T09:56:48.405Z,12.57
2018-07-13T09:58:50.733Z,10.93
2018-07-13T10:00:58.596Z,13.27
2018-07-13T10:03:01.609Z,15.23
2018-07-13T10:05:04.043Z,9.33
2018-07-13T10:07:06.334Z,7.47
2018-07-13T10:09:09.050Z,5.87
2018-07-13T10:11:11.331Z,6.67
2018-07-13T10:13:13.635Z,8.70
2018-07-13T10:15:15.911Z,7.33
2018-07-13T10:17:18.208Z,11.17
2018-07-13T10:19:20.436Z,8.37
2018-07-13T10:21:22.700Z,9.70
2018-07-13T10:23:25.788Z,10.13
2018-07-13T10:25:28.635Z,7.33
2018-07-13T10:27:32.260Z,9.53
2018-07-13T10:29:37.392Z,7.97
2018-07-13T10:31:39.659Z,15.47
2018-07-13T10:33:41.948Z,11.13
2018-07-13T10:35:44.301Z,9.60
2018-07-13T10:37:46.568Z,11.73
2018-07-13T10:39:48.982Z,11.63
2018-07-13T10:41:52.661Z,6.77
2018-07-13T10:43:54.913Z,8.17
2018-07-13T10:45:58.657Z,11.73
2018-07-13T10:48:00.956Z,13.77
2018-07-13T10:50:03.234Z,18.73
2018-07-13T10:52:05.498Z,7.57
2018-07-13T10:54:07.766Z,6.37
2018-07-13T10:56:10.031Z,6.13
2018-07-13T10:58:12.273Z,7.53
2018-07-13T11:00:14.539Z,7.77
2018-07-13T11:02:16.738Z,6.10
2018-07-13T11:04:19.038Z,11.03
2018-07-13T11:06:21.329Z,7.00
2018-07-13T11:08:23.624Z,6.10
2018-07-13T11:10:25.849Z,5.77
2018-07-13T11:12:28.062Z,7.67
2018-07-13T11:14:30.534Z,5.77
2018-07-13T11:16:32.838Z,6.10
2018-07-13T11:19:05.624Z,6.13
2018-07-13T11:21:35.086Z,5.73
2018-07-13T11:23:38.068Z,6.77
2018-07-13T11:25:40.914Z,7.50
2018-07-13T11:27:43.179Z,6.00
2018-07-13T11:29:46.484Z,6.13
2018-07-13T11:31:48.868Z,5.77
2018-07-13T11:33:51.273Z,7.10
2018-07-13T11:35:53.870Z,10.20
2018-07-13T11:37:56.371Z,5.80
2018-07-13T11:39:58.705Z,7.47
2018-07-13T11:42:00.988Z,6.33
2018-07-13T11:44:03.351Z,8.70
2018-07-13T11:46:06.318Z,11.60
2018-07-13T11:48:08.618Z,17.77
2018-07-13T11:50:11.103Z,11.27
2018-07-13T11:52:13.550Z,10.03
2018-07-13T11:54:15.789Z,6.47
2018-07-13T11:56:18.049Z,6.97
2018-07-13T11:58:20.379Z,8.63
2018-07-13T12:00:22.716Z,9.37
2018-07-13T12:02:24.944Z,9.60
2018-07-13T12:04:27.236Z,9.23
2018-07-13T12:06:29.584Z,6.53
2018-07-13T12:08:31.895Z,10.90
2018-07-13T12:10:34.903Z,11.03
2018-07-13T12:12:37.225Z,11.97
2018-07-13T12:14:39.532Z,9.13
2018-07-13T12:16:42.032Z,6.10
2018-07-13T12:18:44.208Z,11.97
2018-07-13T12:20:46.503Z,6.67
2018-07-13T12:22:48.795Z,7.90
2018-07-13T12:24:51.039Z,8.97
2018-07-13T12:26:53.561Z,9.27
2018-07-13T12:28:55.824Z,7.07
2018-07-13T12:30:58.161Z,5.47
2018-07-13T12:33:00.485Z,9.97
2018-07-13T12:35:02.777Z,8.13
2018-07-13T12:37:04.966Z,11.33
2018-07-13T12:39:07.240Z,8.07
2018-07-13T12:41:09.493Z,5.40
2018-07-13T12:43:11.780Z,7.73
2018-07-13T12:45:13.996Z,7.20
2018-07-13T12:47:16.302Z,7.13
2018-07-13T12:49:18.573Z,11.60
2018-07-13T12:51:20.807Z,16.10
2018-07-13T12:53:23.242Z,18.27
2018-07-13T12:55:25.518Z,11.73
2018-07-13T12:57:27.756Z,22.57
2018-07-13T12:59:30.266Z,19.50
2018-07-13T13:01:32.536Z,14.50
2018-07-13T13:03:35.017Z,12.63
2018-07-13T13:05:37.241Z,14.83
2018-07-13T13:07:39.477Z,10.03
2018-07-13T13:09:41.814Z,16.40
2018-07-13T13:11:44.060Z,17.10
2018-07-13T13:13:46.271Z,10.00
2018-07-13T13:15:48.474Z,14.00
2018-07-13T13:17:50.706Z,8.40
2018-07-13T13:19:52.986Z,10.37
2018-07-13T13:21:55.576Z,13.97
2018-07-13T13:23:57.841Z,16.27
2018-07-13T13:26:00.063Z,23.27
2018-07-13T13:28:02.274Z,9.10
2018-07-13T13:30:04.495Z,15.47
2018-07-13T13:32:06.763Z,14.53
2018-07-13T13:34:08.990Z,9.67
2018-07-13T13:36:11.212Z,8.90
2018-07-13T13:38:13.466Z,11.67
2018-07-13T13:40:15.660Z,9.77
2018-07-13T13:42:17.871Z,7.00
2018-07-13T13:44:20.566Z,7.67
2018-07-13T13:46:22.731Z,7.27
2018-07-13T13:48:25.516Z,13.60
2018-07-13T13:50:27.756Z,9.03
2018-07-13T13:52:40.270Z,9.63
2018-07-13T13:54:43.062Z,10.30
2018-07-13T13:56:45.292Z,6.47
2018-07-13T13:58:47.447Z,5.53
2018-07-13T14:00:49.622Z,9.00
2018-07-13T14:02:52.028Z,8.20
2018-07-13T14:04:54.258Z,10.43
2018-07-13T14:06:56.458Z,4.93
2018-07-13T14:08:58.723Z,8.43
2018-07-13T14:11:00.856Z,8.17
2018-07-13T14:13:03.196Z,6.17
2018-07-13T14:15:05.670Z,5.37
2018-07-13T14:17:07.989Z,13.23
2018-07-13T14:19:10.289Z,9.57
2018-07-13T14:21:12.664Z,10.73
2018-07-13T14:23:15.031Z,12.63
2018-07-13T14:25:17.669Z,8.73
2018-07-13T14:27:19.918Z,8.67
2018-07-13T14:29:22.288Z,11.50
2018-07-13T14:31:24.674Z,6.80
2018-07-13T14:33:27.005Z,5.73
2018-07-13T14:35:29.384Z,7.57
2018-07-13T14:37:31.622Z,5.50
2018-07-13T14:39:33.849Z,8.50
2018-07-13T14:41:36.156Z,6.30
2018-07-13T14:43:38.920Z,7.90
2018-07-13T14:45:41.245Z,8.23
2018-07-13T14:47:44.065Z,8.50
2018-07-13T14:49:46.344Z,7.07
2018-07-13T14:51:48.657Z,8.53
2018-07-13T14:53:51.018Z,9.63
2018-07-13T14:55:53.680Z,7.10
2018-07-13T14:57:55.945Z,6.23
2018-07-13T14:59:58.562Z,8.13
2018-07-13T15:02:01.622Z,8.90
2018-07-13T15:04:03.974Z,8.27
2018-07-13T15:06:06.341Z,8.93
2018-07-13T15:08:08.500Z,5.63
2018-07-13T15:10:11.249Z,6.77
2018-07-13T15:12:14.506Z,10.53
2018-07-13T15:14:17.555Z,4.90
2018-07-13T15:16:19.865Z,8.40
2018-07-13T15:18:22.230Z,8.13
2018-07-13T15:20:24.584Z,4.40
2018-07-13T15:22:27.633Z,4.63
2018-07-13T15:24:30.501Z,8.90
2018-07-13T15:26:32.854Z,9.43
2018-07-13T15:28:35.206Z,6.87
2018-07-13T15:30:37.463Z,7.87
2018-07-13T15:32:39.782Z,6.17
2018-07-13T15:34:42.055Z,6.20
2018-07-13T15:36:44.327Z,7.07
2018-07-13T15:38:46.602Z,5.03
2018-07-13T15:40:48.847Z,5.60
2018-07-13T15:42:51.163Z,4.27
2018-07-13T15:44:53.484Z,5.53
2018-07-13T15:46:55.757Z,4.40
2018-07-13T15:48:57.974Z,4.67
2018-07-13T15:51:00.281Z,4.57
2018-07-13T15:53:02.541Z,5.47
2018-07-13T15:55:04.962Z,5.40
2018-07-13T15:57:07.355Z,5.07
2018-07-13T15:59:09.676Z,7.63
2018-07-13T16:01:17.183Z,9.70
2018-07-13T16:03:19.461Z,8.67
2018-07-13T16:05:21.798Z,19.47
2018-07-13T16:07:24.019Z,10.30
2018-07-13T16:09:26.281Z,4.03
2018-07-13T16:11:28.505Z,5.60
2018-07-13T16:13:30.780Z,7.63
2018-07-13T16:15:33.568Z,6.67
2018-07-13T16:17:35.899Z,9.17
2018-07-13T16:19:38.172Z,5.40
2018-07-13T16:21:40.463Z,4.17
2018-07-13T16:23:42.732Z,6.23
2018-07-13T16:25:44.946Z,5.63
2018-07-13T16:27:47.216Z,7.40
2018-07-13T16:29:49.485Z,5.70
2018-07-13T16:31:51.747Z,4.87
2018-07-13T16:33:54.017Z,4.73
2018-07-13T16:35:56.279Z,5.20
2018-07-13T16:37:58.548Z,4.70
2018-07-13T16:40:00.926Z,5.07
2018-07-13T16:42:03.311Z,3.93
2018-07-13T16:44:05.637Z,4.67
2018-07-13T16:46:07.863Z,4.23
2018-07-13T16:48:10.166Z,4.40
2018-07-13T16:50:12.454Z,8.33
2018-07-13T16:52:15.007Z,4.30
2018-07-13T16:54:17.890Z,5.60
2018-07-13T16:56:20.304Z,5.47
2018-07-13T16:58:22.551Z,4.30
2018-07-13T17:00:25.455Z,4.60
2018-07-13T17:02:28.344Z,4.63
2018-07-13T17:04:32.033Z,5.00
2018-07-13T17:06:34.254Z,4.93
2018-07-13T17:08:36.528Z,4.47
2018-07-13T17:10:38.916Z,4.77
2018-07-13T17:12:41.231Z,4.63
2018-07-13T17:14:43.508Z,4.30
2018-07-13T17:16:45.819Z,4.57
2018-07-13T17:18:48.742Z,4.77
2018-07-13T17:20:51.169Z,4.27
2018-07-13T17:22:53.607Z,4.67
2018-07-13T17:24:55.919Z,4.80
2018-07-13T17:26:59.066Z,4.83
2018-07-13T17:29:01.400Z,4.37
2018-07-13T17:31:04.013Z,4.97
2018-07-13T17:33:06.306Z,4.37
2018-07-13T17:35:08.931Z,4.87
2018-07-13T17:37:11.144Z,4.77
2018-07-13T17:39:17.227Z,4.57
2018-07-13T17:41:19.570Z,4.60
2018-07-13T17:43:21.894Z,4.60
2018-07-13T17:45:24.346Z,5.10
2018-07-13T17:47:26.617Z,5.03
2018-07-13T17:49:28.855Z,4.90
2018-07-13T17:51:31.186Z,5.10
2018-07-13T17:53:33.442Z,4.53
2018-07-13T17:55:35.844Z,5.10
2018-07-13T17:57:38.141Z,4.90
2018-07-13T17:59:40.588Z,4.63
2018-07-13T18:01:43.244Z,5.00
2018-07-13T18:03:45.632Z,5.03
2018-07-13T18:05:47.926Z,4.77
2018-07-13T18:07:50.242Z,5.10
2018-07-13T18:09:52.537Z,5.27
2018-07-13T18:11:54.796Z,4.93
2018-07-13T18:13:57.049Z,5.20
2018-07-13T18:15:59.287Z,5.73
2018-07-13T18:18:01.739Z,4.63
2018-07-13T18:20:04.096Z,5.37
2018-07-13T18:22:06.841Z,5.90
2018-07-13T18:24:09.183Z,5.40
2018-07-13T18:26:11.757Z,5.67
2018-07-13T18:28:14.159Z,5.00
2018-07-13T18:30:16.451Z,5.30
2018-07-13T18:32:18.779Z,5.37
2018-07-13T18:34:21.117Z,5.13
2018-07-13T18:36:23.375Z,5.30
2018-07-13T18:38:25.667Z,5.63
2018-07-13T18:40:28.928Z,5.27
2018-07-13T18:42:31.191Z,5.37
2018-07-13T18:44:33.441Z,5.53
2018-07-13T18:46:35.792Z,5.23
2018-07-13T18:48:38.402Z,6.00
2018-07-13T18:50:40.763Z,5.40
2018-07-13T18:52:43.061Z,5.50
2018-07-13T18:54:45.251Z,5.80
2018-07-13T18:56:47.433Z,5.43
2018-07-13T18:58:49.760Z,5.50
2018-07-13T19:00:51.967Z,5.80
2018-07-13T19:02:54.242Z,5.43
2018-07-13T19:04:56.528Z,5.63
2018-07-13T19:06:58.840Z,5.53
2018-07-13T19:09:01.037Z,6.07
2018-07-13T19:11:03.257Z,6.07
2018-07-13T19:13:05.763Z,6.00
2018-07-13T19:15:08.105Z,6.27
2018-07-13T19:17:10.804Z,6.00
2018-07-13T19:19:13.039Z,6.17
2018-07-13T19:21:15.510Z,6.27
2018-07-13T19:23:17.781Z,5.50
2018-07-13T19:25:20.017Z,6.40
2018-07-13T19:27:22.455Z,6.90
2018-07-13T19:29:24.742Z,7.03
2018-07-13T19:31:26.993Z,6.90
2018-07-13T19:33:29.359Z,6.90
2018-07-13T19:35:31.682Z,6.70
2018-07-13T19:37:33.949Z,6.30
2018-07-13T19:39:46.466Z,6.63
2018-07-13T19:41:48.983Z,7.20
2018-07-13T19:43:51.455Z,7.27
2018-07-13T19:45:53.847Z,7.10
2018-07-13T19:47:56.091Z,6.73
2018-07-13T19:49:58.413Z,6.63
2018-07-13T19:52:00.728Z,7.20
2018-07-13T19:54:03.037Z,9.03
2018-07-13T19:56:05.386Z,6.97
2018-07-13T19:58:08.369Z,7.30
2018-07-13T20:00:10.625Z,7.63
2018-07-13T20:02:12.977Z,7.90
2018-07-13T20:04:15.210Z,7.87
2018-07-13T20:06:17.742Z,8.20
2018-07-13T20:08:20.012Z,6.90
2018-07-13T20:10:22.503Z,7.13
2018-07-13T20:12:24.750Z,8.73
2018-07-13T20:14:27.089Z,7.70
2018-07-13T20:16:29.526Z,7.53
2018-07-13T20:18:32.970Z,9.57
2018-07-13T20:20:35.813Z,7.83
2018-07-13T20:22:38.571Z,8.10
2018-07-13T20:24:41.203Z,8.50
2018-07-13T20:26:43.550Z,8.53
2018-07-13T20:28:45.883Z,7.83
2018-07-13T20:30:49.427Z,9.07
2018-07-13T20:32:53.413Z,8.53
2018-07-13T20:34:55.739Z,9.00
2018-07-13T20:36:58.013Z,8.77
2018-07-13T20:39:01.172Z,11.03
2018-07-13T20:41:03.465Z,8.40
2018-07-13T20:43:06.095Z,8.53
2018-07-13T20:45:08.444Z,8.93
2018-07-13T20:47:10.845Z,9.20
2018-07-13T20:49:13.241Z,10.10
2018-07-13T20:51:15.575Z,8.57
2018-07-13T20:53:18.443Z,8.90
2018-07-13T20:55:20.669Z,8.00
2018-07-13T20:57:22.942Z,8.80
2018-07-13T20:59:25.142Z,8.40
2018-07-13T21:01:27.957Z,8.40
2018-07-13T21:03:30.559Z,8.37
2018-07-13T21:05:33.051Z,8.50
2018-07-13T21:07:35.297Z,8.63
2018-07-13T21:09:37.754Z,8.53
2018-07-13T21:11:40.277Z,9.23
2018-07-13T21:13:42.632Z,8.60
2018-07-13T21:15:44.961Z,9.00
2018-07-13T21:17:47.262Z,8.30
2018-07-13T21:19:50.492Z,8.70
2018-07-13T21:21:52.794Z,8.60
2018-07-13T21:23:55.042Z,8.60
2018-07-13T21:25:57.328Z,8.57
2018-07-13T21:28:00.008Z,8.30
2018-07-13T21:30:02.907Z,8.40
2018-07-13T21:32:05.913Z,8.70
2018-07-13T21:34:08.214Z,8.23
2018-07-13T21:36:10.497Z,8.20
2018-07-13T21:38:13.105Z,8.93
2018-07-13T21:40:15.546Z,7.70
2018-07-13T21:42:18.484Z,8.53
2018-07-13T21:44:20.752Z,8.63
2018-07-13T21:46:23.061Z,7.77
2018-07-13T21:48:25.515Z,8.57
2018-07-13T21:50:28.403Z,8.70
2018-07-13T21:52:30.784Z,8.43
2018-07-13T21:54:33.023Z,8.77
2018-07-13T21:56:35.295Z,7.70
2018-07-13T21:58:37.652Z,9.67
2018-07-13T22:00:40.026Z,8.53
2018-07-13T22:02:43.220Z,7.40
2018-07-13T22:04:45.674Z,8.57
2018-07-13T22:06:48.203Z,8.13
2018-07-13T22:08:50.569Z,8.10
2018-07-13T22:10:53.042Z,7.90
2018-07-13T22:12:55.474Z,7.87
2018-07-13T22:14:57.948Z,8.63
2018-07-13T22:17:00.406Z,8.77
2018-07-13T22:19:02.990Z,7.90
2018-07-13T22:21:05.552Z,8.00
2018-07-13T22:23:07.926Z,8.60
2018-07-13T22:25:10.285Z,8.47
2018-07-13T22:27:12.552Z,8.07
2018-07-13T22:29:14.925Z,8.33
2018-07-13T22:31:17.293Z,8.63
2018-07-13T22:33:20.535Z,8.33
2018-07-13T22:35:22.978Z,8.33
2018-07-13T22:37:25.323Z,8.03
2018-07-13T22:39:27.638Z,8.20
2018-07-13T22:41:30.006Z,8.13
2018-07-13T22:43:32.385Z,9.50
2018-07-13T22:45:35.114Z,8.33
2018-07-13T22:47:38.099Z,7.77
2018-07-13T22:49:40.383Z,9.13
2018-07-13T22:51:42.631Z,8.23
2018-07-13T22:53:45.066Z,8.83
2018-07-13T22:55:47.394Z,8.17
2018-07-13T22:57:49.631Z,8.63
2018-07-13T22:59:53.511Z,8.60
2018-07-13T23:01:55.783Z,10.50
2018-07-13T23:03:58.116Z,8.23
2018-07-13T23:06:01.669Z,10.73
2018-07-13T23:08:04.184Z,8.63
2018-07-13T23:10:06.522Z,8.60
2018-07-13T23:12:09.014Z,8.53
2018-07-13T23:14:11.355Z,9.00
2018-07-13T23:16:13.772Z,8.90
2018-07-13T23:18:16.975Z,8.03
2018-07-13T23:20:19.332Z,11.50
2018-07-13T23:22:21.734Z,8.87
2018-07-13T23:24:24.084Z,8.40
2018-07-13T23:26:26.395Z,8.97
2018-07-13T23:28:29.054Z,8.63
2018-07-13T23:30:31.645Z,8.47
2018-07-13T23:32:33.972Z,11.33
2018-07-13T23:34:36.703Z,8.33
2018-07-13T23:36:38.973Z,8.53
2018-07-13T23:38:41.209Z,9.60
2018-07-13T23:40:43.649Z,8.60
2018-07-13T23:42:46.267Z,8.60
2018-07-13T23:44:48.664Z,8.53
2018-07-13T23:46:51.156Z,10.83
2018-07-13T23:48:53.426Z,9.33
2018-07-13T23:50:55.626Z,9.03
2018-07-13T23:52:57.845Z,8.67
2018-07-13T23:55:00.139Z,8.53
2018-07-13T23:57:02.391Z,8.03
2018-07-13T23:59:04.671Z,7.77
